Time;durP1;ratioP1;P1;durP2;ratioP2;P2;SDS_P1;SDS_P2;PMS_P1;PMS_P2;Temp;Humidity;BMP_temperature;BMP_pressure;BME280_temperature;BME280_humidity;BME280_pressure;Samples;Min_cycle;Max_cycle;Signal;HPM_P1;HPM_P2
2024/03/07 00:00:17;;;;;;;57.42;33.17;;;;;;;5.40;100.00;101134.25;4966108;28;20054;-73
2024/03/07 00:02:48;;;;;;;57.05;32.85;;;;;;;5.44;100.00;101133.34;4962751;28;20122;-74
2024/03/07 00:05:18;;;;;;;67.18;34.42;;;;;;;5.44;100.00;101132.47;4983221;28;20614;-73
2024/03/07 00:07:46;;;;;;;55.22;33.90;;;;;;;5.43;100.00;101133.34;4968566;28;20165;-74
2024/03/07 00:10:15;;;;;;;61.35;35.63;;;;;;;5.35;100.00;101127.34;4971128;28;20055;-72
2024/03/07 00:12:47;;;;;;;;;;;;;;;5.40;100.00;101134.25;4965595;28;20281;-73
2024/03/07 00:15:18;;;;;;;63.05;34.97;;;;;;;5.36;100.00;101136.94;4981435;28;20005;-72
2024/03/07 00:17:46;;;;;;;61.63;36.30;;;;;;;5.37;100.00;101136.06;4973622;28;20047;-73
2024/03/07 00:20:23;;;;;;;61.95;36.10;;;;;;;5.34;100.00;101141.38;4965873;28;20093;-73
2024/03/07 00:22:51;;;;;;;63.30;36.22;;;;;;;5.41;100.00;101135.13;4967961;28;20050;-72
2024/03/07 00:25:22;;;;;;;63.67;36.38;;;;;;;5.37;100.00;101136.91;4964601;28;20143;-74
2024/03/07 00:27:53;;;;;;;62.05;35.83;;;;;;;5.31;100.00;101146.66;4982454;28;20070;-74
2024/03/07 00:30:21;;;;;;;56.75;34.22;;;;;;;5.25;100.00;101148.47;4984000;28;20050;-73
2024/03/07 00:32:49;;;;;;;59.13;34.58;;;;;;;5.14;100.00;101142.50;4959970;28;20043;-75
2024/03/07 00:35:20;;;;;;;66.18;35.10;;;;;;;5.13;100.00;101159.13;4964121;28;20042;-74
2024/03/07 00:37:48;;;;;;;60.40;34.50;;;;;;;5.08;100.00;101149.56;4969348;28;20058;-73
2024/03/07 00:40:16;;;;;;;67.70;36.45;;;;;;;5.02;100.00;101144.41;4980254;28;20069;-74
2024/03/07 00:42:43;;;;;;;57.13;34.10;;;;;;;4.99;100.00;101155.81;4948855;28;20043;-73
2024/03/07 00:45:13;;;;;;;62.55;36.25;;;;;;;4.83;100.00;101130.63;4966551;28;20051;-74
2024/03/07 00:47:42;;;;;;;57.00;35.05;;;;;;;4.86;100.00;101148.97;4990865;28;20070;-74
2024/03/07 00:50:11;;;;;;;58.30;33.83;;;;;;;4.81;100.00;101145.53;4985219;28;20059;-74
2024/03/07 00:52:40;;;;;;;58.20;34.15;;;;;;;4.86;100.00;101148.97;4971031;28;20074;-73
2024/03/07 00:55:09;;;;;;;61.45;34.72;;;;;;;4.87;100.00;101145.47;4965244;28;20047;-73
2024/03/07 00:57:38;;;;;;;58.53;34.13;;;;;;;4.86;100.00;101138.47;4991555;28;20097;-73
2024/03/07 01:00:13;;;;;;;60.95;35.13;;;;;;;4.82;100.00;101147.25;4972116;28;20130;-73
2024/03/07 01:02:44;;;;;;;56.97;33.92;;;;;;;4.76;100.00;101128.97;4971270;28;20173;-73
2024/03/07 01:05:14;;;;;;;62.25;34.45;;;;;;;4.84;100.00;101135.00;4960211;28;20047;-74
2024/03/07 01:07:44;;;;;;;57.00;33.53;;;;;;;4.77;100.00;101133.31;4971965;28;20047;-73
2024/03/07 01:10:13;;;;;;;58.95;33.75;;;;;;;4.70;100.00;101137.78;4982940;28;20082;-74
2024/03/07 01:12:43;;;;;;;62.03;34.20;;;;;;;4.68;100.00;101138.69;4971638;28;20507;-73
2024/03/07 01:15:11;;;;;;;56.42;32.55;;;;;;;4.64;100.00;101142.22;4984075;28;20110;-73
2024/03/07 01:17:39;;;;;;;57.35;33.42;;;;;;;4.59;100.00;101140.50;4972248;28;20601;-74
2024/03/07 01:20:11;;;;;;;57.65;33.22;;;;;;;4.57;100.00;101133.53;4988262;28;20038;-72
2024/03/07 01:22:39;;;;;;;62.70;33.22;;;;;;;4.58;100.00;101137.91;4971996;28;20590;-72
2024/03/07 01:25:07;;;;;;;54.80;32.60;;;;;;;4.54;100.00;101137.09;4982624;28;20057;-73
2024/03/07 01:27:37;;;;;;;54.63;32.70;;;;;;;4.53;100.00;101135.34;4966444;28;20062;-72
2024/03/07 01:30:08;;;;;;;52.80;31.25;;;;;;;4.51;100.00;101136.25;4973299;28;20042;-72
2024/03/07 01:32:38;;;;;;;55.13;32.47;;;;;;;4.50;100.00;101135.38;4992829;28;20051;-73
2024/03/07 01:35:08;;;;;;;55.80;32.72;;;;;;;4.45;100.00;101131.03;4966030;28;20054;-75
2024/03/07 01:37:40;;;;;;;59.85;34.50;;;;;;;4.41;100.00;101135.44;4959741;28;20066;-74
2024/03/07 01:40:11;;;;;;;60.72;33.47;;;;;;;4.32;100.00;101135.56;4961251;28;20050;-74
2024/03/07 01:42:39;;;;;;;59.85;33.60;;;;;;;4.23;100.00;101131.28;4988831;28;20046;-74
2024/03/07 01:45:09;;;;;;;61.40;34.55;;;;;;;4.19;100.00;101133.94;4995724;28;20054;-73
2024/03/07 01:47:37;;;;;;;56.67;32.60;;;;;;;4.14;100.00;101126.09;5007372;28;20096;-74
2024/03/07 01:50:08;;;;;;;60.57;33.30;;;;;;;4.13;100.00;101139.22;5008487;28;20470;-73
2024/03/07 01:52:40;;;;;;;57.08;32.92;;;;;;;4.09;100.00;101134.91;4994604;28;20148;-73
2024/03/07 01:55:09;;;;;;;59.03;33.53;;;;;;;4.07;100.00;101132.28;4986817;28;20061;-73
2024/03/07 01:57:42;;;;;;;58.50;32.83;;;;;;;3.97;100.00;101128.00;4994964;28;20058;-73
2024/03/07 02:00:12;;;;;;;59.00;34.15;;;;;;;3.96;100.00;101121.00;4999424;28;20066;-72
2024/03/07 02:02:42;;;;;;;55.63;32.45;;;;;;;3.96;100.00;101128.88;4971934;28;20049;-72
2024/03/07 02:05:11;;;;;;;58.40;33.67;;;;;;;3.95;100.00;101123.66;4966288;28;20522;-74
2024/03/07 02:07:41;;;;;;;60.10;33.70;;;;;;;3.93;100.00;101125.44;4959264;28;20194;-73
2024/03/07 02:10:11;;;;;;;57.53;32.60;;;;;;;3.84;100.00;101108.03;4973075;28;20074;-74
2024/03/07 02:12:39;;;;;;;55.72;33.40;;;;;;;3.87;100.00;101127.22;4956130;28;20043;-73
2024/03/07 02:15:08;;;;;;;57.70;33.28;;;;;;;3.85;100.00;101118.50;4968885;28;20049;-72
2024/03/07 02:17:39;;;;;;;56.97;32.33;;;;;;;3.81;100.00;101129.88;4969896;28;20043;-74
2024/03/07 02:20:10;;;;;;;58.38;33.75;;;;;;;3.71;100.00;101112.50;4955733;28;20388;-72
2024/03/07 02:22:41;;;;;;;57.67;32.53;;;;;;;3.81;100.00;101115.91;4978047;28;20325;-74
2024/03/07 02:25:11;;;;;;;59.35;33.70;;;;;;;3.65;100.00;101096.81;4973711;28;20128;-74
2024/03/07 02:27:45;;;;;;;58.38;31.98;;;;;;;3.74;100.00;101120.34;4971757;28;20047;-74
2024/03/07 02:30:15;;;;;;;56.58;30.65;;;;;;;3.69;100.00;101109.00;4969394;28;20063;-73
2024/03/07 02:32:48;;;;;;;55.10;31.08;;;;;;;3.59;100.00;101094.25;4975755;28;20126;-73
2024/03/07 02:35:18;;;;;;;50.40;30.13;;;;;;;3.66;100.00;101105.53;4971403;28;20042;-73
2024/03/07 02:37:47;;;;;;;56.70;30.95;;;;;;;3.66;100.00;101108.16;4971190;28;20808;-73
2024/03/07 02:40:17;;;;;;;51.85;29.92;;;;;;;3.69;100.00;101111.63;4992907;28;20055;-74
2024/03/07 02:42:45;;;;;;;51.33;30.33;;;;;;;3.69;100.00;101113.38;4998272;28;20098;-72
2024/03/07 02:45:14;;;;;;;51.28;29.73;;;;;;;3.69;100.00;101106.41;4986344;28;20042;-73
2024/03/07 02:47:44;;;;;;;49.35;28.73;;;;;;;3.65;100.00;101107.28;4992025;28;20082;-71
2024/03/07 02:50:12;;;;;;;48.55;28.50;;;;;;;3.67;100.00;101094.19;4977801;28;20054;-72
2024/03/07 02:52:40;;;;;;;51.83;29.35;;;;;;;3.60;100.00;101080.28;4982795;28;20050;-73
2024/03/07 02:55:11;;;;;;;46.05;27.77;;;;;;;3.70;100.00;101104.66;4960224;28;20085;-73
2024/03/07 02:57:39;;;;;;;45.33;28.15;;;;;;;3.70;100.00;101108.13;4970638;28;20301;-71
2024/03/07 03:00:19;;;;;;;47.07;27.80;;;;;;;3.69;100.00;101095.91;4967909;28;20054;-71
2024/03/07 03:02:50;;;;;;;46.47;26.75;;;;;;;3.63;100.00;101100.31;4981653;28;20054;-72
2024/03/07 03:05:18;;;;;;;49.63;28.17;;;;;;;3.51;100.00;101085.56;4973994;28;20546;-73
2024/03/07 03:07:53;;;;;;;49.00;29.13;;;;;;;3.59;100.00;101099.50;4968830;28;20073;-73
2024/03/07 03:10:28;;;;;;;55.40;30.52;;;;;;;3.45;100.00;101086.50;4969134;28;20669;-73
2024/03/07 03:12:59;;;;;;;50.00;28.85;;;;;;;3.48;100.00;101096.06;4983486;28;20043;-73
2024/03/07 03:15:35;;;;;;;50.00;28.45;;;;;;;3.48;100.00;101090.81;4982144;28;20042;-73
2024/03/07 03:18:03;;;;;;;51.42;29.33;;;;;;;3.54;100.00;101090.78;4972955;28;20043;-73
2024/03/07 03:20:40;;;;;;;50.10;29.20;;;;;;;3.51;100.00;101082.94;4968125;28;20597;-72
2024/03/07 03:23:13;;;;;;;49.35;28.02;;;;;;;3.47;100.00;101091.69;4980758;28;20046;-73
2024/03/07 03:25:49;;;;;;;50.15;29.08;;;;;;;3.46;100.00;101087.38;4964248;28;20061;-73
2024/03/07 03:28:20;;;;;;;49.85;28.92;;;;;;;3.39;100.00;101077.81;4985443;28;20140;-72
2024/03/07 03:30:49;;;;;;;50.47;28.80;;;;;;;3.47;100.00;101087.34;4983486;28;20154;-71
2024/03/07 03:33:21;;;;;;;51.33;28.55;;;;;;;3.45;100.00;101085.63;4967276;28;20478;-71
2024/03/07 03:35:49;;;;;;;50.33;29.52;;;;;;;3.42;100.00;101085.66;4962495;28;20050;-72
2024/03/07 03:38:19;;;;;;;53.85;29.48;;;;;;;3.35;100.00;101070.84;4966267;28;20503;-73
2024/03/07 03:40:50;;;;;;;49.78;27.73;;;;;;;3.31;100.00;101064.75;4984263;28;20058;-73
2024/03/07 03:43:18;;;;;;;52.03;29.10;;;;;;;3.35;100.00;101074.34;4968444;28;20057;-73
2024/03/07 03:45:49;;;;;;;48.95;27.00;;;;;;;3.39;100.00;101077.81;4961952;28;20090;-72
2024/03/07 03:48:17;;;;;;;47.03;28.20;;;;;;;3.33;100.00;101068.25;4987087;28;20057;-73
2024/03/07 03:50:47;;;;;;;48.13;28.17;;;;;;;3.41;100.00;101076.94;4982185;28;20054;-75
2024/03/07 03:53:15;;;;;;;45.08;27.10;;;;;;;3.41;100.00;101086.53;4971948;28;20042;-73
2024/03/07 03:55:44;;;;;;;47.13;27.80;;;;;;;3.36;100.00;101077.81;4985329;28;20047;-73
2024/03/07 03:58:14;;;;;;;47.72;27.00;;;;;;;3.38;100.00;101078.69;4983127;28;20059;-73
2024/03/07 04:00:42;;;;;;;49.45;27.75;;;;;;;3.37;100.00;101082.19;4969553;28;20059;-72
2024/03/07 04:03:12;;;;;;;49.15;28.27;;;;;;;3.35;100.00;101086.56;4967581;28;20707;-73
2024/03/07 04:05:41;;;;;;;49.53;27.42;;;;;;;3.35;100.00;101083.94;4959151;28;20051;-73
2024/03/07 04:08:09;;;;;;;48.25;26.58;;;;;;;3.34;100.00;101079.59;4985687;28;20046;-73
2024/03/07 04:10:38;;;;;;;48.28;27.13;;;;;;;3.27;100.00;101075.28;4955838;28;20054;-72
2024/03/07 04:13:06;;;;;;;50.30;26.75;;;;;;;3.26;100.00;101079.66;4968348;28;20053;-73
2024/03/07 04:15:36;;;;;;;44.10;26.15;;;;;;;3.27;100.00;101083.13;4946106;28;20101;-73
2024/03/07 04:18:06;;;;;;;46.55;26.88;;;;;;;3.28;100.00;101084.88;4968008;28;20053;-70
2024/03/07 04:20:35;;;;;;;50.73;26.80;;;;;;;3.25;100.00;101084.88;4969512;28;20086;-71
2024/03/07 04:23:05;;;;;;;48.78;27.08;;;;;;;3.20;100.00;101081.41;4988438;28;20077;-73
2024/03/07 04:25:35;;;;;;;46.83;26.77;;;;;;;3.13;100.00;101078.00;4977963;28;20598;-72
2024/03/07 04:28:05;;;;;;;45.83;27.75;;;;;;;3.15;100.00;101084.91;4983127;28;20121;-72
2024/03/07 04:30:33;;;;;;;51.50;27.90;;;;;;;3.11;100.00;101092.81;4959399;28;20106;-71
2024/03/07 04:33:02;;;;;;;46.05;27.17;;;;;;;2.97;100.00;101076.34;4976831;28;20414;-72
2024/03/07 04:35:31;;;;;;;42.78;26.13;;;;;;;3.02;100.00;101085.88;4973044;28;20054;-72
2024/03/07 04:38:00;;;;;;;44.97;26.38;;;;;;;2.98;100.00;101078.94;4967994;28;20047;-71
2024/03/07 04:40:28;;;;;;;44.35;26.52;;;;;;;2.98;100.00;101089.41;4968342;28;20455;-73
2024/03/07 04:42:58;;;;;;;43.17;26.42;;;;;;;2.85;100.00;101069.38;4967069;28;20038;-73
2024/03/07 04:45:25;;;;;;;47.38;26.40;;;;;;;2.92;100.00;101083.31;4975180;28;20053;-73
2024/03/07 04:47:54;;;;;;;47.25;27.27;;;;;;;2.82;100.00;101072.03;4964252;28;20066;-73
2024/03/07 04:50:23;;;;;;;48.33;28.38;;;;;;;2.89;100.00;101083.31;4966728;28;20045;-72
2024/03/07 04:52:54;;;;;;;48.40;27.42;;;;;;;2.86;100.00;101083.34;4968788;28;20137;-73
2024/03/07 04:55:22;;;;;;;46.28;26.45;;;;;;;2.79;100.00;101072.06;4981832;28;20076;-73
2024/03/07 04:57:51;;;;;;;50.05;28.10;;;;;;;2.81;100.00;101083.38;4971775;28;20054;-72
2024/03/07 05:00:20;;;;;;;44.25;27.15;;;;;;;2.83;100.00;101084.25;4984188;28;20050;-72
2024/03/07 05:02:50;;;;;;;47.08;26.88;;;;;;;2.83;100.00;101075.53;4969308;28;20047;-73
2024/03/07 05:05:22;;;;;;;50.95;27.77;;;;;;;2.81;100.00;101076.41;4964802;28;20038;-71
2024/03/07 05:07:55;;;;;;;49.85;26.80;;;;;;;2.79;100.00;101077.28;4965697;28;20066;-73
2024/03/07 05:10:24;;;;;;;47.95;26.50;;;;;;;2.78;100.00;101084.25;4967717;28;20042;-73
2024/03/07 05:12:52;;;;;;;47.83;27.40;;;;;;;2.73;100.00;101082.53;4970928;28;20046;-73
2024/03/07 05:15:20;;;;;;;46.75;26.70;;;;;;;2.67;100.00;101079.97;4975088;28;20061;-73
2024/03/07 05:17:50;;;;;;;46.50;26.35;;;;;;;2.69;100.00;101081.66;4948205;28;20055;-72
2024/03/07 05:20:19;;;;;;;47.92;28.33;;;;;;;2.66;100.00;101075.59;4968236;28;20125;-73
2024/03/07 05:22:50;;;;;;;47.90;27.45;;;;;;;2.59;100.00;101074.75;4947859;28;20562;-73
2024/03/07 05:25:22;;;;;;;45.80;26.67;;;;;;;2.57;100.00;101073.88;4963231;28;20046;-72
2024/03/07 05:27:51;;;;;;;45.08;25.58;;;;;;;2.54;100.00;101073.00;4980533;28;20424;-73
2024/03/07 05:30:23;;;;;;;47.85;27.75;;;;;;;2.50;100.00;101082.63;4985404;28;20097;-72
2024/03/07 05:32:52;;;;;;;51.20;27.55;;;;;;;2.45;100.00;101074.78;4987079;28;20042;-73
2024/03/07 05:35:21;;;;;;;44.63;26.33;;;;;;;2.46;100.00;101081.75;4966814;28;20067;-73
2024/03/07 05:37:50;;;;;;;46.42;27.00;;;;;;;2.40;100.00;101081.75;4969812;28;20043;-73
2024/03/07 05:40:23;;;;;;;49.53;27.40;;;;;;;2.40;100.00;101083.50;4969305;28;20078;-72
2024/03/07 05:42:53;;;;;;;44.92;27.10;;;;;;;2.36;100.00;101085.25;4951734;28;20031;-73
2024/03/07 05:45:23;;;;;;;47.28;27.20;;;;;;;2.32;100.00;101083.53;4962662;28;20055;-72
2024/03/07 05:47:53;;;;;;;48.08;27.55;;;;;;;2.28;100.00;101080.94;4983009;28;20069;-72
2024/03/07 05:50:22;;;;;;;46.80;27.08;;;;;;;2.25;100.00;101084.41;4972365;28;20074;-74
2024/03/07 05:52:50;;;;;;;46.15;27.02;;;;;;;2.22;100.00;101078.31;4954835;28;20062;-74
2024/03/07 05:55:19;;;;;;;46.20;27.00;;;;;;;2.22;100.00;101083.53;4980879;28;20372;-74
2024/03/07 05:57:50;;;;;;;50.03;28.50;;;;;;;2.15;100.00;101077.47;4968011;28;20053;-73
2024/03/07 06:00:26;;;;;;;45.70;27.73;;;;;;;2.13;100.00;101079.22;4975404;28;20153;-73
2024/03/07 06:02:56;;;;;;;49.97;27.95;;;;;;;2.15;100.00;101080.09;5002125;28;20038;-73
2024/03/07 06:05:26;;;;;;;48.35;27.42;;;;;;;2.15;100.00;101080.09;4985058;28;20053;-74
2024/03/07 06:07:56;;;;;;;47.00;27.70;;;;;;;2.18;100.00;101085.31;4978875;28;20059;-73
2024/03/07 06:10:25;;;;;;;34.50;19.83;;;;;;;2.18;100.00;101081.84;5009943;28;20053;-73
2024/03/07 06:12:56;;;;;;;50.17;27.65;;;;;;;2.13;100.00;101076.59;4986990;28;20078;-73
2024/03/07 06:15:39;;;;;;;49.08;27.40;;;;;;;2.11;100.00;101075.75;4984470;28;20298;-74
2024/03/07 06:18:10;;;;;;;49.53;27.77;;;;;;;2.16;100.00;101078.34;4972954;28;20126;-73
2024/03/07 06:20:38;;;;;;;48.13;26.75;;;;;;;2.18;100.00;101087.06;4973066;28;20816;-73
2024/03/07 06:23:06;;;;;;;43.88;27.15;;;;;;;2.22;100.00;101081.81;4974517;28;20113;-74
2024/03/07 06:25:37;;;;;;;50.63;28.50;;;;;;;2.28;100.00;101076.56;4979666;28;20057;-73
2024/03/07 06:28:14;;;;;;;45.38;26.40;;;;;;;2.37;100.00;101079.16;4987680;28;20114;-73
2024/03/07 06:30:46;;;;;;;48.45;27.35;;;;;;;2.51;100.00;101080.88;4999793;28;20049;-73
2024/03/07 06:33:19;;;;;;;47.65;26.80;;;;;;;2.58;100.00;101083.47;4994266;28;20053;-73
2024/03/07 06:35:53;;;;;;;47.03;27.80;;;;;;;2.68;100.00;101086.91;4992710;28;20460;-74
2024/03/07 06:38:23;;;;;;;49.33;26.98;;;;;;;2.68;100.00;101079.91;4988750;28;20115;-71
2024/03/07 06:40:52;;;;;;;45.97;28.08;;;;;;;2.81;100.00;101088.63;5001087;28;20095;-72
2024/03/07 06:43:22;;;;;;;44.97;27.15;;;;;;;2.88;100.00;101092.91;5002885;28;20057;-74
2024/03/07 06:45:50;;;;;;;47.95;28.40;;;;;;;2.95;100.00;101092.03;4983295;28;20047;-74
2024/03/07 06:48:21;;;;;;;45.05;27.58;;;;;;;2.95;100.00;101086.81;4992499;28;20042;-74
2024/03/07 06:50:52;;;;;;;44.47;26.33;;;;;;;3.07;100.00;101094.56;5007941;28;20049;-73
2024/03/07 06:53:25;;;;;;;48.63;28.30;;;;;;;3.05;100.00;101096.34;5003863;28;20045;-74
2024/03/07 06:55:54;;;;;;;45.17;26.70;;;;;;;3.00;100.00;101097.22;4978387;28;20046;-73
2024/03/07 06:58:27;;;;;;;44.60;26.33;;;;;;;2.97;100.00;101089.41;5001766;28;20086;-74
2024/03/07 07:01:01;;;;;;;44.17;26.92;;;;;;;2.99;100.00;101096.34;5007008;28;20050;-71
2024/03/07 07:03:35;;;;;;;44.88;26.85;;;;;;;3.01;100.00;101094.59;5006815;28;20081;-72
2024/03/07 07:06:05;;;;;;;44.92;26.65;;;;;;;3.05;100.00;101092.84;4987324;28;20257;-73
2024/03/07 07:08:35;;;;;;;48.28;27.30;;;;;;;3.09;100.00;101098.06;4998147;28;20334;-73
2024/03/07 07:11:03;;;;;;;44.13;26.35;;;;;;;3.20;100.00;101094.50;4999888;28;20120;-72
2024/03/07 07:13:33;;;;;;;46.33;26.27;;;;;;;3.35;100.00;101083.94;4990175;28;20043;-74
2024/03/07 07:16:01;;;;;;;45.28;26.45;;;;;;;3.29;100.00;101048.22;4979809;28;20046;-73
2024/03/07 07:18:30;;;;;;;44.38;26.48;;;;;;;3.58;100.00;101081.16;4988130;28;20152;-71
2024/03/07 07:21:06;;;;;;;43.92;25.90;;;;;;;3.65;100.00;101077.59;4986879;28;20235;-72
2024/03/07 07:23:39;;;;;;;43.47;26.75;;;;;;;3.71;100.00;101083.69;4992378;28;20038;-74
2024/03/07 07:26:08;;;;;;;43.13;25.77;;;;;;;3.69;100.00;101074.97;4978638;28;20601;-74
2024/03/07 07:28:39;;;;;;;44.28;26.58;;;;;;;3.77;100.00;101086.25;4976823;28;20071;-73
2024/03/07 07:31:06;;;;;;;42.88;25.67;;;;;;;3.92;100.00;101079.16;4989345;28;20042;-72
2024/03/07 07:33:34;;;;;;;42.92;25.95;;;;;;;4.00;100.00;101062.47;4979071;28;20047;-72
2024/03/07 07:36:02;;;;;;;41.58;25.60;;;;;;;4.28;100.00;101081.41;4969430;28;20129;-73
2024/03/07 07:38:37;;;;;;;40.30;25.80;;;;;;;4.43;100.00;101070.75;4987269;28;20058;-74
2024/03/07 07:41:10;;;;;;;39.38;24.95;;;;;;;4.50;100.00;101064.56;4959212;28;20137;-72
2024/03/07 07:43:42;;;;;;;40.92;24.98;;;;;;;4.66;100.00;101061.75;4962815;28;20057;-72
2024/03/07 07:46:11;;;;;;;39.65;25.92;;;;;;;4.75;100.00;101064.25;4970430;28;20034;-72
2024/03/07 07:48:39;;;;;;;40.90;25.42;;;;;;;4.86;100.00;101065.88;4989474;28;20074;-71
2024/03/07 07:51:08;;;;;;;36.30;23.08;;;;;;;5.00;100.00;101062.19;4970652;28;20043;-72
2024/03/07 07:53:36;;;;;;;38.53;24.25;;;;;;;5.11;100.00;101061.16;4972467;28;20059;-72
2024/03/07 07:56:04;;;;;;;39.65;23.98;;;;;;;5.29;100.00;101068.78;4975192;28;20109;-73
2024/03/07 07:58:33;;;;;;;40.00;24.13;;;;;;;5.29;100.00;101060.88;4987045;28;20070;-74
2024/03/07 08:01:02;;;;;;;39.38;24.15;;;;;;;5.35;100.00;101070.44;4985980;28;20047;-73
2024/03/07 08:03:33;;;;;;;39.25;24.98;;;;;;;5.44;100.00;101067.66;4974360;28;20047;-72
2024/03/07 08:06:01;;;;;;;;;;;;;;;5.62;100.00;101070.00;4968691;28;20771;-74
2024/03/07 08:08:30;;;;;;;39.67;24.65;;;;;;;5.74;100.00;101061.06;4986470;28;20462;-71
2024/03/07 08:10:59;;;;;;;40.55;24.20;;;;;;;5.95;100.00;101058.09;4981219;28;20043;-73
2024/03/07 08:13:28;;;;;;;40.03;24.10;;;;;;;6.08;100.00;101065.78;4968572;28;20070;-73
2024/03/07 08:15:57;;;;;;;42.65;24.33;;;;;;;6.10;100.00;101063.97;4981158;28;20066;-73
2024/03/07 08:18:26;;;;;;;36.97;23.25;;;;;;;6.02;100.00;101050.09;4963082;28;20815;-73
2024/03/07 08:20:56;;;;;;;37.97;23.92;;;;;;;6.10;100.00;101053.47;4969635;28;20074;-72
2024/03/07 08:23:29;;;;;;;40.83;23.67;;;;;;;6.23;100.00;101057.59;4978997;28;21021;-73
2024/03/07 08:25:58;;;;;;;36.63;24.30;;;;;;;6.31;100.00;101051.28;4964875;28;20451;-74
2024/03/07 08:28:28;;;;;;;41.67;24.40;;;;;;;6.36;100.00;101039.81;4966551;28;20050;-72
2024/03/07 08:31:00;;;;;;;34.50;22.23;;;;;;;6.50;100.00;101051.81;4972478;28;20046;-73
2024/03/07 08:33:33;;;;;;;33.63;22.02;;;;;;;6.62;100.00;101030.50;4971478;28;20052;-73
2024/03/07 08:36:03;;;;;;;34.05;22.55;;;;;;;6.86;100.00;101047.56;4967890;28;20047;-72
2024/03/07 08:38:39;;;;;;;32.85;21.88;;;;;;;6.98;100.00;101049.91;4984897;28;20499;-73
2024/03/07 08:41:16;;;;;;;37.97;22.52;;;;;;;7.02;100.00;101050.72;4968854;28;20070;-74
2024/03/07 08:43:45;;;;;;;33.00;22.40;;;;;;;7.13;100.00;101055.75;4983757;28;20058;-73
2024/03/07 08:46:16;;;;;;;35.10;23.15;;;;;;;6.95;100.00;101028.03;4959979;28;20546;-75
2024/03/07 08:48:48;;;;;;;32.55;21.65;;;;;;;7.04;100.00;101056.81;4969805;28;20039;-73
2024/03/07 08:51:17;;;;;;;36.92;22.83;;;;;;;6.78;100.00;101031.03;4987539;28;20032;-73
2024/03/07 08:53:48;;;;;;;36.95;22.75;;;;;;;6.65;100.00;101046.22;4985448;28;20824;-72
2024/03/07 08:56:16;;;;;;;35.50;22.98;;;;;;;6.46;100.00;101034.34;4993289;28;20811;-71
2024/03/07 08:58:45;;;;;;;38.13;23.08;;;;;;;6.45;100.00;101043.16;4982630;28;20082;-73
2024/03/07 09:01:14;;;;;;;34.17;23.30;;;;;;;6.42;100.00;101042.34;5000691;28;21073;-73
2024/03/07 09:03:43;;;;;;;35.50;22.02;;;;;;;6.42;100.00;101040.56;4981163;28;22356;-73
2024/03/07 09:06:15;;;;;;;36.20;22.25;;;;;;;6.44;100.00;101030.91;4971113;28;20051;-73
2024/03/07 09:08:44;;;;;;;35.05;22.13;;;;;;;6.61;100.00;101027.94;4967215;28;20046;-73
2024/03/07 09:11:12;;;;;;;36.75;22.42;;;;;;;6.56;100.00;101020.13;4974210;28;20039;-74
2024/03/07 09:13:43;;;;;;;35.25;21.92;;;;;;;6.60;100.00;101037.56;4965638;28;20057;-72
2024/03/07 09:16:12;;;;;;;35.60;22.60;;;;;;;6.65;100.00;101042.72;4978935;28;20055;-72
2024/03/07 09:18:41;;;;;;;32.17;21.98;;;;;;;6.71;100.00;101044.38;4981785;28;20169;-73
2024/03/07 09:21:12;;;;;;;38.30;23.05;;;;;;;6.59;100.00;101035.84;4969571;28;20054;-73
2024/03/07 09:23:42;;;;;;;35.47;22.65;;;;;;;6.36;100.00;101043.31;4984835;28;20046;-72
2024/03/07 09:26:10;;;;;;;35.83;21.65;;;;;;;6.33;100.00;101038.97;4967168;28;20711;-73
2024/03/07 09:28:41;;;;;;;35.35;21.90;;;;;;;6.48;100.00;101045.69;4963878;28;20429;-72
2024/03/07 09:31:09;;;;;;;32.38;21.38;;;;;;;6.69;100.00;101045.28;4967812;28;20055;-72
2024/03/07 09:33:38;;;;;;;36.45;22.42;;;;;;;6.67;100.00;101051.47;4970510;28;20054;-72
2024/03/07 09:36:06;;;;;;;41.38;22.42;;;;;;;6.58;100.00;101049.91;4970574;28;20082;-73
2024/03/07 09:38:35;;;;;;;36.53;22.10;;;;;;;6.45;100.00;101035.25;4973313;28;20141;-72
2024/03/07 09:41:05;;;;;;;35.42;22.40;;;;;;;6.60;100.00;101037.56;4991145;28;20043;-72
2024/03/07 09:43:38;;;;;;;32.80;21.40;;;;;;;6.69;100.00;101032.13;4969702;28;20070;-72
2024/03/07 09:46:07;;;;;;;36.45;22.13;;;;;;;6.76;100.00;101039.91;4983240;28;20050;-71
2024/03/07 09:48:35;;;;;;;35.53;22.17;;;;;;;6.65;100.00;101012.00;4986939;28;20145;-72
2024/03/07 09:51:09;;;;;;;32.78;21.17;;;;;;;6.71;100.00;101018.06;4988053;28;20105;-74
2024/03/07 09:53:45;;;;;;;33.65;21.40;;;;;;;6.62;100.00;101021.72;4978325;28;20046;-72
2024/03/07 09:56:18;;;;;;;32.95;21.17;;;;;;;6.71;100.00;101029.44;4967453;28;20132;-73
2024/03/07 09:58:53;;;;;;;33.80;20.95;;;;;;;6.83;100.00;101044.09;4984112;28;20058;-71
2024/03/07 10:01:25;;;;;;;31.67;19.85;;;;;;;6.91;100.00;101029.91;4991801;28;20070;-73
2024/03/07 10:03:58;;;;;;;32.30;20.90;;;;;;;7.03;100.00;101034.88;4986737;28;20062;-72
2024/03/07 10:06:30;;;;;;;32.05;20.73;;;;;;;7.13;100.00;101032.03;4983518;28;20069;-72
2024/03/07 10:09:03;;;;;;;32.00;20.38;;;;;;;7.24;100.00;101032.69;4981059;28;20067;-73
2024/03/07 10:11:36;;;;;;;32.40;20.75;;;;;;;7.34;100.00;101032.41;4983533;28;20058;-71
2024/03/07 10:14:04;;;;;;;33.28;21.20;;;;;;;7.42;100.00;101031.34;4984794;28;20062;-73
2024/03/07 10:16:33;;;;;;;32.63;20.85;;;;;;;7.47;100.00;101024.22;4975525;28;20149;-71
2024/03/07 10:19:05;;;;;;;34.35;19.77;;;;;;;7.48;100.00;101025.94;4970968;28;20679;-73
2024/03/07 10:21:36;;;;;;;31.92;20.42;;;;;;;7.42;100.00;101015.53;4966016;28;20046;-73
2024/03/07 10:24:09;;;;;;;33.05;20.88;;;;;;;7.48;100.00;101013.63;4985216;28;20117;-72
2024/03/07 10:26:40;;;;;;;;;;;;;;;7.44;100.00;101021.66;4972731;28;20215;-72
2024/03/07 10:29:13;;;;;;;38.28;21.88;;;;;;;7.27;100.00;100999.19;4984771;28;19944;-72
2024/03/07 10:31:44;;;;;;;34.20;21.17;;;;;;;7.35;100.00;101009.56;4966567;28;20109;-74
2024/03/07 10:34:25;;;;;;;35.75;21.75;;;;;;;7.45;100.00;101012.84;4980705;28;20053;-74
2024/03/07 10:36:55;;;;;;;34.13;21.40;;;;;;;7.38;100.00;101007.75;4963122;28;20044;-73
2024/03/07 10:39:25;;;;;;;32.95;20.42;;;;;;;7.48;100.00;101011.00;4986523;28;20034;-72
2024/03/07 10:42:05;;;;;;;33.10;22.17;;;;;;;7.56;100.00;101010.78;4970700;28;20315;-73
2024/03/07 10:44:48;;;;;;;35.30;21.98;;;;;;;7.57;100.00;101015.16;4982759;28;20386;-72
2024/03/07 10:47:19;;;;;;;35.40;21.88;;;;;;;7.58;100.00;101007.22;4990001;28;20054;-72
2024/03/07 10:50:00;;;;;;;37.53;21.95;;;;;;;7.77;100.00;101010.28;4953025;28;20046;-72
2024/03/07 10:52:34;;;;;;;34.10;21.55;;;;;;;7.86;100.00;101006.56;5001639;28;20043;-73
2024/03/07 10:55:13;;;;;;;35.53;20.98;;;;;;;7.75;100.00;100998.91;5007235;28;20049;-72
2024/03/07 10:57:53;;;;;;;33.35;20.42;;;;;;;7.56;100.00;101000.25;4987000;28;20110;-73
2024/03/07 11:00:35;;;;;;;34.47;21.17;;;;;;;7.62;100.00;100989.56;4988941;28;20181;-71
2024/03/07 11:03:07;;;;;;;33.60;20.45;;;;;;;7.78;100.00;100984.78;4988406;28;20074;-74
2024/03/07 11:05:36;;;;;;;;;;;;;;;7.89;100.00;100991.50;5001240;28;20046;-72
2024/03/07 11:08:11;;;;;;;33.05;20.55;;;;;;;7.91;100.00;100984.41;4986644;28;20488;-71
2024/03/07 11:10:41;;;;;;;31.88;19.80;;;;;;;8.05;100.00;100989.31;4982880;28;20113;-72
2024/03/07 11:13:13;;;;;;;32.67;20.35;;;;;;;8.12;100.00;100977.69;5001697;28;20038;-72
2024/03/07 11:15:44;;;;;;;32.97;20.58;;;;;;;8.24;100.00;100979.13;4981958;28;20047;-73
2024/03/07 11:18:12;;;;;;;30.10;19.90;;;;;;;8.41;100.00;100967.22;4983056;28;20046;-71
2024/03/07 11:20:43;;;;;;;31.42;20.05;;;;;;;8.61;100.00;100966.63;4989485;28;20077;-73
2024/03/07 11:23:28;;;;;;;30.92;20.13;;;;;;;8.66;100.00;100969.97;4993641;28;20089;-73